sensor_id;sensor_type;location;lat;lon;timestamp;temperature;humidity
68511;SHT31;55512;50.102;19.958;2022-07-03T00:01:53;18.06;67.77
68511;SHT31;55512;50.102;19.958;2022-07-03T00:04:19;18.10;67.47
68511;SHT31;55512;50.102;19.958;2022-07-03T00:06:45;18.17;67.22
68511;SHT31;55512;50.102;19.958;2022-07-03T00:09:12;18.21;67.30
68511;SHT31;55512;50.102;19.958;2022-07-03T00:11:38;18.28;67.13
68511;SHT31;55512;50.102;19.958;2022-07-03T00:14:04;18.32;67.13
68511;SHT31;55512;50.102;19.958;2022-07-03T00:16:30;18.39;67.09
68511;SHT31;55512;50.102;19.958;2022-07-03T00:18:56;18.33;67.38
68511;SHT31;55512;50.102;19.958;2022-07-03T00:21:27;18.38;67.36
68511;SHT31;55512;50.102;19.958;2022-07-03T00:24:04;18.38;67.52
68511;SHT31;55512;50.102;19.958;2022-07-03T00:26:38;18.26;68.39
68511;SHT31;55512;50.102;19.958;2022-07-03T00:29:07;18.45;68.55
68511;SHT31;55512;50.102;19.958;2022-07-03T00:31:35;18.53;68.76
68511;SHT31;55512;50.102;19.958;2022-07-03T00:34:01;18.52;69.11
68511;SHT31;55512;50.102;19.958;2022-07-03T00:36:34;18.61;68.98
68511;SHT31;55512;50.102;19.958;2022-07-03T00:39:02;18.58;69.39
68511;SHT31;55512;50.102;19.958;2022-07-03T00:41:31;18.65;69.26
68511;SHT31;55512;50.102;19.958;2022-07-03T00:44:00;18.65;69.06
68511;SHT31;55512;50.102;19.958;2022-07-03T00:46:27;18.75;68.84
68511;SHT31;55512;50.102;19.958;2022-07-03T00:48:54;18.66;69.03
68511;SHT31;55512;50.102;19.958;2022-07-03T00:51:22;18.56;69.42
68511;SHT31;55512;50.102;19.958;2022-07-03T00:53:52;18.58;69.44
68511;SHT31;55512;50.102;19.958;2022-07-03T00:56:25;18.87;68.70
68511;SHT31;55512;50.102;19.958;2022-07-03T00:58:57;18.98;68.43
68511;SHT31;55512;50.102;19.958;2022-07-03T01:01:26;19.04;68.25
68511;SHT31;55512;50.102;19.958;2022-07-03T01:04:08;19.11;68.14
68511;SHT31;55512;50.102;19.958;2022-07-03T01:06:50;19.20;67.96
68511;SHT31;55512;50.102;19.958;2022-07-03T01:09:37;19.26;67.81
68511;SHT31;55512;50.102;19.958;2022-07-03T01:12:17;19.27;67.63
68511;SHT31;55512;50.102;19.958;2022-07-03T01:15:16;19.27;67.60
68511;SHT31;55512;50.102;19.958;2022-07-03T01:17:53;19.28;67.51
68511;SHT31;55512;50.102;19.958;2022-07-03T01:20:50;19.35;67.45
68511;SHT31;55512;50.102;19.958;2022-07-03T01:23:56;19.39;67.35
68511;SHT31;55512;50.102;19.958;2022-07-03T01:26:32;19.44;67.30
68511;SHT31;55512;50.102;19.958;2022-07-03T01:29:06;19.48;67.22
68511;SHT31;55512;50.102;19.958;2022-07-03T01:31:37;19.49;67.24
68511;SHT31;55512;50.102;19.958;2022-07-03T01:34:11;19.36;67.54
68511;SHT31;55512;50.102;19.958;2022-07-03T01:36:43;19.48;67.39
68511;SHT31;55512;50.102;19.958;2022-07-03T01:39:12;19.51;67.22
68511;SHT31;55512;50.102;19.958;2022-07-03T01:41:43;19.52;67.20
68511;SHT31;55512;50.102;19.958;2022-07-03T01:44:13;19.49;67.23
68511;SHT31;55512;50.102;19.958;2022-07-03T01:46:41;19.47;67.27
68511;SHT31;55512;50.102;19.958;2022-07-03T01:49:11;19.45;67.37
68511;SHT31;55512;50.102;19.958;2022-07-03T01:51:39;19.45;67.35
68511;SHT31;55512;50.102;19.958;2022-07-03T01:54:08;19.44;67.37
68511;SHT31;55512;50.102;19.958;2022-07-03T01:56:36;19.46;67.30
68511;SHT31;55512;50.102;19.958;2022-07-03T01:59:02;19.47;67.26
68511;SHT31;55512;50.102;19.958;2022-07-03T02:01:43;19.53;67.08
68511;SHT31;55512;50.102;19.958;2022-07-03T02:04:21;19.58;67.01
68511;SHT31;55512;50.102;19.958;2022-07-03T02:07:06;19.63;66.92
68511;SHT31;55512;50.102;19.958;2022-07-03T02:09:44;19.66;66.90
68511;SHT31;55512;50.102;19.958;2022-07-03T02:12:52;19.66;66.90
68511;SHT31;55512;50.102;19.958;2022-07-03T02:15:29;19.70;66.82
68511;SHT31;55512;50.102;19.958;2022-07-03T02:17:59;19.77;66.70
68511;SHT31;55512;50.102;19.958;2022-07-03T02:20:35;19.79;66.68
68511;SHT31;55512;50.102;19.958;2022-07-03T02:23:06;19.83;66.59
68511;SHT31;55512;50.102;19.958;2022-07-03T02:25:34;19.88;66.50
68511;SHT31;55512;50.102;19.958;2022-07-03T02:28:13;19.91;66.45
68511;SHT31;55512;50.102;19.958;2022-07-03T02:31:09;19.94;66.38
68511;SHT31;55512;50.102;19.958;2022-07-03T02:33:40;19.95;66.29
68511;SHT31;55512;50.102;19.958;2022-07-03T02:36:10;19.97;66.20
68511;SHT31;55512;50.102;19.958;2022-07-03T02:38:39;19.97;66.20
68511;SHT31;55512;50.102;19.958;2022-07-03T02:41:13;20.00;66.11
68511;SHT31;55512;50.102;19.958;2022-07-03T02:50:03;20.02;65.94
68511;SHT31;55512;50.102;19.958;2022-07-03T02:58:27;20.02;65.91
68511;SHT31;55512;50.102;19.958;2022-07-03T03:03:50;20.05;65.87
68511;SHT31;55512;50.102;19.958;2022-07-03T03:06:46;20.05;65.87
68511;SHT31;55512;50.102;19.958;2022-07-03T03:09:20;20.09;65.80
68511;SHT31;55512;50.102;19.958;2022-07-03T03:11:58;20.13;65.72
68511;SHT31;55512;50.102;19.958;2022-07-03T03:14:29;20.13;65.70
68511;SHT31;55512;50.102;19.958;2022-07-03T03:17:05;20.16;65.70
68511;SHT31;55512;50.102;19.958;2022-07-03T03:19:34;20.19;65.66
68511;SHT31;55512;50.102;19.958;2022-07-03T03:25:04;20.27;65.56
68511;SHT31;55512;50.102;19.958;2022-07-03T03:27:30;20.30;65.50
68511;SHT31;55512;50.102;19.958;2022-07-03T03:29:56;20.34;65.42
68511;SHT31;55512;50.102;19.958;2022-07-03T03:32:22;20.36;65.42
68511;SHT31;55512;50.102;19.958;2022-07-03T03:34:51;20.34;65.40
68511;SHT31;55512;50.102;19.958;2022-07-03T03:37:17;20.33;65.50
68511;SHT31;55512;50.102;19.958;2022-07-03T03:39:43;20.35;65.50
68511;SHT31;55512;50.102;19.958;2022-07-03T03:42:08;20.39;65.46
68511;SHT31;55512;50.102;19.958;2022-07-03T03:44:34;20.45;65.38
68511;SHT31;55512;50.102;19.958;2022-07-03T03:47:00;20.52;65.28
68511;SHT31;55512;50.102;19.958;2022-07-03T03:49:26;20.52;65.30
68511;SHT31;55512;50.102;19.958;2022-07-03T03:51:52;20.54;65.29
68511;SHT31;55512;50.102;19.958;2022-07-03T03:54:18;20.53;65.30
68511;SHT31;55512;50.102;19.958;2022-07-03T03:56:44;20.56;65.30
68511;SHT31;55512;50.102;19.958;2022-07-03T03:59:09;20.59;65.26
68511;SHT31;55512;50.102;19.958;2022-07-03T04:01:35;20.66;65.19
68511;SHT31;55512;50.102;19.958;2022-07-03T04:04:01;20.71;65.10
68511;SHT31;55512;50.102;19.958;2022-07-03T04:06:26;20.76;65.02
68511;SHT31;55512;50.102;19.958;2022-07-03T04:08:52;20.79;64.92
68511;SHT31;55512;50.102;19.958;2022-07-03T04:11:18;20.82;64.89
68511;SHT31;55512;50.102;19.958;2022-07-03T04:13:44;20.85;64.80
68511;SHT31;55512;50.102;19.958;2022-07-03T04:16:10;20.89;64.76
68511;SHT31;55512;50.102;19.958;2022-07-03T04:18:36;20.91;64.70
68511;SHT31;55512;50.102;19.958;2022-07-03T04:21:02;20.94;64.68
68511;SHT31;55512;50.102;19.958;2022-07-03T04:23:28;20.98;64.64
68511;SHT31;55512;50.102;19.958;2022-07-03T04:25:55;21.01;64.69
68511;SHT31;55512;50.102;19.958;2022-07-03T04:28:20;21.07;64.61
68511;SHT31;55512;50.102;19.958;2022-07-03T04:30:46;21.13;64.58
68511;SHT31;55512;50.102;19.958;2022-07-03T04:33:13;21.21;64.51
68511;SHT31;55512;50.102;19.958;2022-07-03T04:35:38;21.27;64.46
68511;SHT31;55512;50.102;19.958;2022-07-03T04:38:04;21.35;64.34
68511;SHT31;55512;50.102;19.958;2022-07-03T04:40:30;21.44;64.18
68511;SHT31;55512;50.102;19.958;2022-07-03T04:42:55;21.50;64.04
68511;SHT31;55512;50.102;19.958;2022-07-03T04:45:21;21.58;63.88
68511;SHT31;55512;50.102;19.958;2022-07-03T04:47:47;21.66;63.74
68511;SHT31;55512;50.102;19.958;2022-07-03T04:50:12;21.77;63.57
68511;SHT31;55512;50.102;19.958;2022-07-03T04:52:38;21.85;63.38
68511;SHT31;55512;50.102;19.958;2022-07-03T04:55:04;21.98;63.19
68511;SHT31;55512;50.102;19.958;2022-07-03T04:57:30;22.17;62.97
68511;SHT31;55512;50.102;19.958;2022-07-03T04:59:55;22.35;62.72
68511;SHT31;55512;50.102;19.958;2022-07-03T05:02:21;22.47;62.46
68511;SHT31;55512;50.102;19.958;2022-07-03T05:04:46;22.57;62.33
68511;SHT31;55512;50.102;19.958;2022-07-03T05:07:12;22.70;62.16
68511;SHT31;55512;50.102;19.958;2022-07-03T05:09:38;22.85;61.92
68511;SHT31;55512;50.102;19.958;2022-07-03T05:12:03;22.99;61.62
68511;SHT31;55512;50.102;19.958;2022-07-03T05:14:30;23.10;61.34
68511;SHT31;55512;50.102;19.958;2022-07-03T05:16:56;23.17;61.14
68511;SHT31;55512;50.102;19.958;2022-07-03T05:19:21;23.20;60.97
68511;SHT31;55512;50.102;19.958;2022-07-03T05:21:47;23.28;60.78
68511;SHT31;55512;50.102;19.958;2022-07-03T05:24:13;23.39;60.48
68511;SHT31;55512;50.102;19.958;2022-07-03T05:26:38;23.50;60.30
68511;SHT31;55512;50.102;19.958;2022-07-03T05:29:04;23.57;60.09
68511;SHT31;55512;50.102;19.958;2022-07-03T05:31:29;23.66;59.91
68511;SHT31;55512;50.102;19.958;2022-07-03T05:33:55;23.74;59.71
68511;SHT31;55512;50.102;19.958;2022-07-03T05:36:21;23.85;59.58
68511;SHT31;55512;50.102;19.958;2022-07-03T05:38:46;24.03;59.19
68511;SHT31;55512;50.102;19.958;2022-07-03T05:41:31;24.05;59.25
68511;SHT31;55512;50.102;19.958;2022-07-03T05:43:56;23.97;59.49
68511;SHT31;55512;50.102;19.958;2022-07-03T05:46:22;24.17;59.05
68511;SHT31;55512;50.102;19.958;2022-07-03T05:48:48;24.41;58.41
68511;SHT31;55512;50.102;19.958;2022-07-03T05:51:14;24.42;58.41
68511;SHT31;55512;50.102;19.958;2022-07-03T05:53:40;24.38;58.48
68511;SHT31;55512;50.102;19.958;2022-07-03T05:56:06;24.37;58.23
68511;SHT31;55512;50.102;19.958;2022-07-03T05:58:31;24.41;58.13
68511;SHT31;55512;50.102;19.958;2022-07-03T06:00:57;24.42;58.05
68511;SHT31;55512;50.102;19.958;2022-07-03T06:03:23;24.54;57.95
68511;SHT31;55512;50.102;19.958;2022-07-03T06:05:48;24.77;57.41
68511;SHT31;55512;50.102;19.958;2022-07-03T06:08:14;25.05;56.68
68511;SHT31;55512;50.102;19.958;2022-07-03T06:10:40;25.17;56.37
68511;SHT31;55512;50.102;19.958;2022-07-03T06:13:05;25.28;56.19
68511;SHT31;55512;50.102;19.958;2022-07-03T06:15:31;25.37;55.94
68511;SHT31;55512;50.102;19.958;2022-07-03T06:17:57;25.48;55.51
68511;SHT31;55512;50.102;19.958;2022-07-03T06:20:23;25.55;55.06
68511;SHT31;55512;50.102;19.958;2022-07-03T06:22:49;25.52;54.98
68511;SHT31;55512;50.102;19.958;2022-07-03T06:25:14;25.61;55.04
68511;SHT31;55512;50.102;19.958;2022-07-03T06:27:41;25.75;54.82
68511;SHT31;55512;50.102;19.958;2022-07-03T06:30:08;25.84;54.32
68511;SHT31;55512;50.102;19.958;2022-07-03T06:32:34;25.90;54.07
68511;SHT31;55512;50.102;19.958;2022-07-03T06:35:00;26.02;53.78
68511;SHT31;55512;50.102;19.958;2022-07-03T06:37:26;26.14;53.81
68511;SHT31;55512;50.102;19.958;2022-07-03T06:39:51;26.27;53.63
68511;SHT31;55512;50.102;19.958;2022-07-03T06:42:17;26.38;53.23
68511;SHT31;55512;50.102;19.958;2022-07-03T06:44:43;26.45;53.12
68511;SHT31;55512;50.102;19.958;2022-07-03T06:47:10;26.51;52.96
68511;SHT31;55512;50.102;19.958;2022-07-03T06:49:36;26.53;52.64
68511;SHT31;55512;50.102;19.958;2022-07-03T06:52:02;26.61;52.53
68511;SHT31;55512;50.102;19.958;2022-07-03T06:54:27;26.76;52.20
68511;SHT31;55512;50.102;19.958;2022-07-03T06:56:53;26.75;51.57
68511;SHT31;55512;50.102;19.958;2022-07-03T06:59:19;26.76;51.82
68511;SHT31;55512;50.102;19.958;2022-07-03T07:01:45;26.78;51.67
68511;SHT31;55512;50.102;19.958;2022-07-03T07:04:10;26.85;51.54
68511;SHT31;55512;50.102;19.958;2022-07-03T07:06:36;26.89;51.46
68511;SHT31;55512;50.102;19.958;2022-07-03T07:09:03;26.97;50.92
68511;SHT31;55512;50.102;19.958;2022-07-03T07:11:29;27.00;50.63
68511;SHT31;55512;50.102;19.958;2022-07-03T07:13:55;27.07;50.36
68511;SHT31;55512;50.102;19.958;2022-07-03T07:16:20;27.17;50.37
68511;SHT31;55512;50.102;19.958;2022-07-03T07:18:46;27.25;49.75
68511;SHT31;55512;50.102;19.958;2022-07-03T07:21:12;27.25;49.75
68511;SHT31;55512;50.102;19.958;2022-07-03T07:23:38;27.19;49.58
68511;SHT31;55512;50.102;19.958;2022-07-03T07:26:03;27.16;49.66
68511;SHT31;55512;50.102;19.958;2022-07-03T07:28:30;27.25;49.56
68511;SHT31;55512;50.102;19.958;2022-07-03T07:30:58;27.31;49.50
68511;SHT31;55512;50.102;19.958;2022-07-03T07:33:24;27.37;49.20
68511;SHT31;55512;50.102;19.958;2022-07-03T07:35:50;27.34;49.00
68511;SHT31;55512;50.102;19.958;2022-07-03T07:38:16;27.27;48.37
68511;SHT31;55512;50.102;19.958;2022-07-03T07:40:43;27.06;48.86
68511;SHT31;55512;50.102;19.958;2022-07-03T07:43:09;27.03;48.71
68511;SHT31;55512;50.102;19.958;2022-07-03T07:45:34;27.04;48.86
68511;SHT31;55512;50.102;19.958;2022-07-03T07:48:00;26.96;48.43
68511;SHT31;55512;50.102;19.958;2022-07-03T07:50:26;26.90;48.65
68511;SHT31;55512;50.102;19.958;2022-07-03T07:52:52;26.97;49.07
68511;SHT31;55512;50.102;19.958;2022-07-03T07:55:18;27.05;49.24
68511;SHT31;55512;50.102;19.958;2022-07-03T07:57:45;27.26;49.32
68511;SHT31;55512;50.102;19.958;2022-07-03T08:00:14;27.44;48.90
68511;SHT31;55512;50.102;19.958;2022-07-03T08:02:42;27.58;48.59
68511;SHT31;55512;50.102;19.958;2022-07-03T08:05:28;27.72;48.00
68511;SHT31;55512;50.102;19.958;2022-07-03T08:08:01;27.87;48.17
68511;SHT31;55512;50.102;19.958;2022-07-03T08:10:49;28.08;47.37
68511;SHT31;55512;50.102;19.958;2022-07-03T08:13:18;28.10;46.51
68511;SHT31;55512;50.102;19.958;2022-07-03T08:15:46;28.17;46.56
68511;SHT31;55512;50.102;19.958;2022-07-03T08:18:12;28.16;46.77
68511;SHT31;55512;50.102;19.958;2022-07-03T08:20:38;28.12;46.54
68511;SHT31;55512;50.102;19.958;2022-07-03T08:23:04;28.04;46.63
68511;SHT31;55512;50.102;19.958;2022-07-03T08:25:30;28.14;46.16
68511;SHT31;55512;50.102;19.958;2022-07-03T08:27:57;28.33;45.54
68511;SHT31;55512;50.102;19.958;2022-07-03T08:30:24;28.50;45.61
68511;SHT31;55512;50.102;19.958;2022-07-03T08:32:51;28.67;45.13
68511;SHT31;55512;50.102;19.958;2022-07-03T08:35:21;28.75;45.32
68511;SHT31;55512;50.102;19.958;2022-07-03T08:37:47;28.84;45.53
68511;SHT31;55512;50.102;19.958;2022-07-03T08:40:14;28.94;45.32
68511;SHT31;55512;50.102;19.958;2022-07-03T08:42:49;29.21;45.00
68511;SHT31;55512;50.102;19.958;2022-07-03T08:45:19;29.43;44.44
68511;SHT31;55512;50.102;19.958;2022-07-03T08:47:48;29.48;43.99
68511;SHT31;55512;50.102;19.958;2022-07-03T08:50:16;29.53;44.14
68511;SHT31;55512;50.102;19.958;2022-07-03T08:52:44;29.60;43.22
68511;SHT31;55512;50.102;19.958;2022-07-03T08:55:11;29.82;43.28
68511;SHT31;55512;50.102;19.958;2022-07-03T08:57:39;30.14;43.22
68511;SHT31;55512;50.102;19.958;2022-07-03T09:00:08;30.32;42.30
68511;SHT31;55512;50.102;19.958;2022-07-03T09:02:38;30.46;42.11
68511;SHT31;55512;50.102;19.958;2022-07-03T09:05:08;30.46;41.41
68511;SHT31;55512;50.102;19.958;2022-07-03T09:07:40;30.52;41.16
68511;SHT31;55512;50.102;19.958;2022-07-03T09:10:13;30.62;41.19
68511;SHT31;55512;50.102;19.958;2022-07-03T09:12:42;30.66;40.81
68511;SHT31;55512;50.102;19.958;2022-07-03T09:15:11;30.62;40.42
68511;SHT31;55512;50.102;19.958;2022-07-03T09:17:38;30.52;40.57
68511;SHT31;55512;50.102;19.958;2022-07-03T09:20:05;30.50;40.59
68511;SHT31;55512;50.102;19.958;2022-07-03T09:22:33;30.43;40.19
68511;SHT31;55512;50.102;19.958;2022-07-03T09:27:48;30.31;40.73
68511;SHT31;55512;50.102;19.958;2022-07-03T09:30:16;30.65;40.50
68511;SHT31;55512;50.102;19.958;2022-07-03T09:32:44;30.90;39.67
68511;SHT31;55512;50.102;19.958;2022-07-03T09:35:15;30.94;39.40
68511;SHT31;55512;50.102;19.958;2022-07-03T09:37:51;31.08;39.42
68511;SHT31;55512;50.102;19.958;2022-07-03T09:43:25;30.77;39.46
68511;SHT31;55512;50.102;19.958;2022-07-03T09:53:58;31.45;38.68
68511;SHT31;55512;50.102;19.958;2022-07-03T09:56:27;31.80;38.30
68511;SHT31;55512;50.102;19.958;2022-07-03T09:59:04;32.00;37.87
68511;SHT31;55512;50.102;19.958;2022-07-03T10:01:44;31.79;37.13
68511;SHT31;55512;50.102;19.958;2022-07-03T10:04:18;31.44;37.88
68511;SHT31;55512;50.102;19.958;2022-07-03T10:09:26;31.54;37.97
68511;SHT31;55512;50.102;19.958;2022-07-03T10:11:55;31.66;37.64
68511;SHT31;55512;50.102;19.958;2022-07-03T10:14:24;31.86;37.63
68511;SHT31;55512;50.102;19.958;2022-07-03T10:16:57;32.09;37.35
68511;SHT31;55512;50.102;19.958;2022-07-03T10:19:26;32.26;37.20
68511;SHT31;55512;50.102;19.958;2022-07-03T10:21:55;32.44;36.41
68511;SHT31;55512;50.102;19.958;2022-07-03T10:24:26;32.26;36.20
68511;SHT31;55512;50.102;19.958;2022-07-03T10:26:56;32.32;36.64
68511;SHT31;55512;50.102;19.958;2022-07-03T10:29:27;32.53;36.37
68511;SHT31;55512;50.102;19.958;2022-07-03T10:31:54;32.67;35.91
68511;SHT31;55512;50.102;19.958;2022-07-03T10:34:21;32.77;35.95
68511;SHT31;55512;50.102;19.958;2022-07-03T10:36:50;32.82;35.37
68511;SHT31;55512;50.102;19.958;2022-07-03T10:40:09;32.49;35.52
68511;SHT31;55512;50.102;19.958;2022-07-03T10:42:50;32.40;35.81
68511;SHT31;55512;50.102;19.958;2022-07-03T10:54:20;31.82;35.83
68511;SHT31;55512;50.102;19.958;2022-07-03T10:57:05;31.40;35.78
68511;SHT31;55512;50.102;19.958;2022-07-03T11:07:28;31.21;36.53
68511;SHT31;55512;50.102;19.958;2022-07-03T11:20:36;31.90;35.86
68511;SHT31;55512;50.102;19.958;2022-07-03T11:25:56;31.75;35.57
68511;SHT31;55512;50.102;19.958;2022-07-03T11:41:25;30.86;35.97
68511;SHT31;55512;50.102;19.958;2022-07-03T11:43:59;30.95;36.27
68511;SHT31;55512;50.102;19.958;2022-07-03T11:46:28;31.13;36.23
68511;SHT31;55512;50.102;19.958;2022-07-03T11:49:06;31.46;36.01
68511;SHT31;55512;50.102;19.958;2022-07-03T11:51:53;31.76;35.24
68511;SHT31;55512;50.102;19.958;2022-07-03T11:54:20;31.70;35.25
68511;SHT31;55512;50.102;19.958;2022-07-03T11:56:46;31.63;34.98
68511;SHT31;55512;50.102;19.958;2022-07-03T11:59:12;31.31;34.84
68511;SHT31;55512;50.102;19.958;2022-07-03T12:01:38;31.08;35.47
68511;SHT31;55512;50.102;19.958;2022-07-03T12:06:51;31.72;35.09
68511;SHT31;55512;50.102;19.958;2022-07-03T12:09:22;32.12;35.26
68511;SHT31;55512;50.102;19.958;2022-07-03T12:17:22;32.85;34.44
68511;SHT31;55512;50.102;19.958;2022-07-03T12:19:52;32.75;33.17
68511;SHT31;55512;50.102;19.958;2022-07-03T12:22:30;32.52;33.70
68511;SHT31;55512;50.102;19.958;2022-07-03T12:25:03;32.20;33.44
68511;SHT31;55512;50.102;19.958;2022-07-03T12:27:31;31.85;34.08
68511;SHT31;55512;50.102;19.958;2022-07-03T12:30:00;31.91;34.43
68511;SHT31;55512;50.102;19.958;2022-07-03T12:32:27;32.17;34.54
68511;SHT31;55512;50.102;19.958;2022-07-03T12:34:54;32.42;34.16
68511;SHT31;55512;50.102;19.958;2022-07-03T12:37:30;32.62;34.09
68511;SHT31;55512;50.102;19.958;2022-07-03T12:40:01;32.89;33.75
68511;SHT31;55512;50.102;19.958;2022-07-03T12:42:28;33.14;33.46
68511;SHT31;55512;50.102;19.958;2022-07-03T12:44:58;33.50;33.81
68511;SHT31;55512;50.102;19.958;2022-07-03T12:47:26;33.93;33.50
68511;SHT31;55512;50.102;19.958;2022-07-03T12:49:58;34.25;32.56
68511;SHT31;55512;50.102;19.958;2022-07-03T12:52:27;34.26;31.64
68511;SHT31;55512;50.102;19.958;2022-07-03T12:54:54;34.16;31.87
68511;SHT31;55512;50.102;19.958;2022-07-03T12:57:21;34.10;31.78
68511;SHT31;55512;50.102;19.958;2022-07-03T13:00:15;34.09;31.85
68511;SHT31;55512;50.102;19.958;2022-07-03T13:02:44;34.13;31.31
68511;SHT31;55512;50.102;19.958;2022-07-03T13:05:13;34.06;31.56
68511;SHT31;55512;50.102;19.958;2022-07-03T13:07:42;34.15;31.49
68511;SHT31;55512;50.102;19.958;2022-07-03T13:10:14;34.39;31.43
68511;SHT31;55512;50.102;19.958;2022-07-03T13:12:49;34.85;31.35
68511;SHT31;55512;50.102;19.958;2022-07-03T13:15:26;35.35;31.03
68511;SHT31;55512;50.102;19.958;2022-07-03T13:20:23;36.27;30.04
68511;SHT31;55512;50.102;19.958;2022-07-03T13:22:50;36.35;29.34
68511;SHT31;55512;50.102;19.958;2022-07-03T13:25:18;36.21;29.35
68511;SHT31;55512;50.102;19.958;2022-07-03T13:27:45;36.12;29.45
68511;SHT31;55512;50.102;19.958;2022-07-03T13:30:12;36.29;29.53
68511;SHT31;55512;50.102;19.958;2022-07-03T13:32:40;36.58;28.98
68511;SHT31;55512;50.102;19.958;2022-07-03T13:35:06;36.39;27.93
68511;SHT31;55512;50.102;19.958;2022-07-03T13:37:33;35.86;28.61
68511;SHT31;55512;50.102;19.958;2022-07-03T13:39:59;35.70;29.44
68511;SHT31;55512;50.102;19.958;2022-07-03T13:42:27;36.08;29.34
68511;SHT31;55512;50.102;19.958;2022-07-03T13:44:52;36.65;28.90
68511;SHT31;55512;50.102;19.958;2022-07-03T13:47:18;36.97;27.88
68511;SHT31;55512;50.102;19.958;2022-07-03T13:49:44;36.80;27.96
68511;SHT31;55512;50.102;19.958;2022-07-03T13:52:10;36.61;28.39
68511;SHT31;55512;50.102;19.958;2022-07-03T13:54:35;36.68;28.34
68511;SHT31;55512;50.102;19.958;2022-07-03T13:57:01;36.88;28.52
68511;SHT31;55512;50.102;19.958;2022-07-03T13:59:28;37.32;28.21
68511;SHT31;55512;50.102;19.958;2022-07-03T14:01:56;37.76;27.88
68511;SHT31;55512;50.102;19.958;2022-07-03T14:04:22;38.21;27.63
68511;SHT31;55512;50.102;19.958;2022-07-03T14:06:48;38.65;27.25
68511;SHT31;55512;50.102;19.958;2022-07-03T14:09:14;38.98;26.77
68511;SHT31;55512;50.102;19.958;2022-07-03T14:11:40;39.13;26.55
68511;SHT31;55512;50.102;19.958;2022-07-03T14:14:05;39.14;26.04
68511;SHT31;55512;50.102;19.958;2022-07-03T14:16:31;38.45;25.10
68511;SHT31;55512;50.102;19.958;2022-07-03T14:18:57;37.85;26.35
68511;SHT31;55512;50.102;19.958;2022-07-03T14:21:23;38.04;26.79
68511;SHT31;55512;50.102;19.958;2022-07-03T14:23:50;38.38;26.13
68511;SHT31;55512;50.102;19.958;2022-07-03T14:26:15;38.39;26.13
68511;SHT31;55512;50.102;19.958;2022-07-03T14:29:02;38.08;25.73
68511;SHT31;55512;50.102;19.958;2022-07-03T14:31:46;37.91;26.20
68511;SHT31;55512;50.102;19.958;2022-07-03T14:34:30;38.19;25.79
68511;SHT31;55512;50.102;19.958;2022-07-03T14:36:56;38.13;25.71
68511;SHT31;55512;50.102;19.958;2022-07-03T14:39:21;38.27;25.71
68511;SHT31;55512;50.102;19.958;2022-07-03T14:41:47;38.58;25.60
68511;SHT31;55512;50.102;19.958;2022-07-03T14:44:14;38.87;25.58
68511;SHT31;55512;50.102;19.958;2022-07-03T14:46:39;39.24;25.34
68511;SHT31;55512;50.102;19.958;2022-07-03T14:49:06;39.21;24.99
68511;SHT31;55512;50.102;19.958;2022-07-03T14:51:31;39.16;25.36
68511;SHT31;55512;50.102;19.958;2022-07-03T14:53:57;39.23;25.07
68511;SHT31;55512;50.102;19.958;2022-07-03T14:56:23;39.37;25.19
68511;SHT31;55512;50.102;19.958;2022-07-03T14:58:49;39.32;24.49
68511;SHT31;55512;50.102;19.958;2022-07-03T15:01:15;38.63;25.10
68511;SHT31;55512;50.102;19.958;2022-07-03T15:03:45;38.30;25.59
68511;SHT31;55512;50.102;19.958;2022-07-03T15:06:27;38.13;25.58
68511;SHT31;55512;50.102;19.958;2022-07-03T15:09:03;38.05;25.98
68511;SHT31;55512;50.102;19.958;2022-07-03T15:11:33;38.12;25.77
68511;SHT31;55512;50.102;19.958;2022-07-03T15:14:39;38.12;25.82
68511;SHT31;55512;50.102;19.958;2022-07-03T15:17:07;38.49;25.86
68511;SHT31;55512;50.102;19.958;2022-07-03T15:19:36;39.08;25.74
68511;SHT31;55512;50.102;19.958;2022-07-03T15:22:03;39.54;25.07
68511;SHT31;55512;50.102;19.958;2022-07-03T15:24:30;39.41;24.85
68511;SHT31;55512;50.102;19.958;2022-07-03T15:26:56;39.02;25.02
68511;SHT31;55512;50.102;19.958;2022-07-03T15:29:22;38.63;25.64
68511;SHT31;55512;50.102;19.958;2022-07-03T15:31:48;38.53;25.62
68511;SHT31;55512;50.102;19.958;2022-07-03T15:34:15;38.18;25.70
68511;SHT31;55512;50.102;19.958;2022-07-03T15:40:00;36.34;26.83
68511;SHT31;55512;50.102;19.958;2022-07-03T15:48:28;36.56;27.31
68511;SHT31;55512;50.102;19.958;2022-07-03T15:53:58;37.28;26.90
68511;SHT31;55512;50.102;19.958;2022-07-03T15:56:30;37.21;26.73
68511;SHT31;55512;50.102;19.958;2022-07-03T15:59:04;37.03;26.71
68511;SHT31;55512;50.102;19.958;2022-07-03T16:01:38;36.88;27.01
68511;SHT31;55512;50.102;19.958;2022-07-03T16:07:28;37.13;26.52
68511;SHT31;55512;50.102;19.958;2022-07-03T16:09:55;37.29;26.42
68511;SHT31;55512;50.102;19.958;2022-07-03T16:12:24;37.36;26.18
68511;SHT31;55512;50.102;19.958;2022-07-03T16:14:51;37.31;26.17
68511;SHT31;55512;50.102;19.958;2022-07-03T16:17:17;37.50;26.40
68511;SHT31;55512;50.102;19.958;2022-07-03T16:19:47;37.84;25.86
68511;SHT31;55512;50.102;19.958;2022-07-03T16:22:15;37.77;25.91
68511;SHT31;55512;50.102;19.958;2022-07-03T16:24:42;37.88;26.20
68511;SHT31;55512;50.102;19.958;2022-07-03T16:27:14;37.67;26.17
68511;SHT31;55512;50.102;19.958;2022-07-03T16:29:44;37.83;26.67
68511;SHT31;55512;50.102;19.958;2022-07-03T16:32:13;38.41;26.23
68511;SHT31;55512;50.102;19.958;2022-07-03T16:34:56;38.90;25.96
68511;SHT31;55512;50.102;19.958;2022-07-03T16:40:16;40.05;25.10
68511;SHT31;55512;50.102;19.958;2022-07-03T16:42:44;40.47;24.79
68511;SHT31;55512;50.102;19.958;2022-07-03T16:45:13;40.83;24.54
68511;SHT31;55512;50.102;19.958;2022-07-03T16:47:40;41.09;24.31
68511;SHT31;55512;50.102;19.958;2022-07-03T16:50:16;41.31;24.12
68511;SHT31;55512;50.102;19.958;2022-07-03T16:52:45;41.52;23.92
68511;SHT31;55512;50.102;19.958;2022-07-03T16:55:14;41.70;23.60
68511;SHT31;55512;50.102;19.958;2022-07-03T16:57:51;41.76;23.52
68511;SHT31;55512;50.102;19.958;2022-07-03T17:00:23;41.87;23.40
68511;SHT31;55512;50.102;19.958;2022-07-03T17:02:53;41.96;23.28
68511;SHT31;55512;50.102;19.958;2022-07-03T17:05:23;42.09;23.21
68511;SHT31;55512;50.102;19.958;2022-07-03T17:07:52;42.25;23.10
68511;SHT31;55512;50.102;19.958;2022-07-03T17:10:20;42.38;22.95
68511;SHT31;55512;50.102;19.958;2022-07-03T17:12:50;42.47;22.88
68511;SHT31;55512;50.102;19.958;2022-07-03T17:15:20;42.46;22.62
68511;SHT31;55512;50.102;19.958;2022-07-03T17:17:48;42.36;22.73